PWSweather.com
Personal Weather Stations
Station Observations
EA5BZ
Nuevo Altabix, ElcheES

Nuevo AltabixElcheES

Lat: 38.276, Lon: -0.671

Elevation: 0

Station Type: Oregon Scientific WMR-300

http://meteoelche.es

High Low Average
Temperature 60.3°F15.7°F 49.9°F9.9°F 54.0°F12.2°F
Dew Point 47.5°F8.6°F 36.8°F2.7°F 39.8°F4.3°F
Winds 17.0 mph -27.4 mph - 2.5 mph 4.0 mph 9.5 mph 15.3 mph
Wind Gusts 30.6 mph49.2 mph 3.1 mph5.0 mph 15.4 mph24.8 mph
Humidity 78% 43% 59%
Pressure 30.08 in1018.60 in 29.98 in1015.20 in -
Precipitation 0.00 in0.00 in - -
Hour Temp Dew Point Humidity Winds Wind Gusts Pressure Precip Precip Rate Daily Precip Total
12:00 AM 50.7°F10.4°C 41.3°F5.2°C 70% 7.4 mph SW11.9 kmh SW 13.0 mph20.9 kmh 30.04 in1017.3 mb 0.00 in0.0 mm 0.00 in0.0 mm 0.00 in0.0 mm
12:05 AM 50.7°F10.4°C 41.3°F5.2°C 70% 7.7 mph SW12.4 kmh SW 17.0 mph27.4 kmh 30.04 in1017.3 mb 0.00 in0.0 mm 0.00 in0.0 mm 0.00 in0.0 mm
12:10 AM 50.7°F10.4°C 40.9°F4.9°C 69% 9.6 mph SW15.4 kmh SW 13.0 mph20.9 kmh 30.03 in1016.9 mb 0.00 in0.0 mm 0.00 in0.0 mm 0.00 in0.0 mm
12:15 AM 50.7°F10.4°C 40.9°F4.9°C 69% 9.6 mph SW15.4 kmh SW 13.0 mph20.9 kmh 30.03 in1016.9 mb 0.00 in0.0 mm 0.00 in0.0 mm 0.00 in0.0 mm
12:20 AM 50.7°F10.4°C 40.9°F4.9°C 69% 9.6 mph SW15.4 kmh SW 14.5 mph23.3 kmh 30.03 in1016.9 mb 0.00 in0.0 mm 0.00 in0.0 mm 0.00 in0.0 mm
12:25 AM 50.5°F10.3°C 40.8°F4.9°C 69% 9.6 mph SW15.4 kmh SW 13.6 mph21.9 kmh 30.03 in1016.9 mb 0.00 in0.0 mm 0.00 in0.0 mm 0.00 in0.0 mm
12:30 AM 50.5°F10.3°C 40.8°F4.9°C 69% 9.6 mph SW15.4 kmh SW 16.3 mph26.2 kmh 30.03 in1016.9 mb 0.00 in0.0 mm 0.00 in0.0 mm 0.00 in0.0 mm
12:35 AM 50.7°F10.4°C 40.6°F4.8°C 68% 9.8 mph SW15.8 kmh SW 14.1 mph22.7 kmh 30.03 in1016.9 mb 0.00 in0.0 mm 0.00 in0.0 mm 0.00 in0.0 mm
12:40 AM 50.7°F10.4°C 40.5°F4.7°C 68% 10.7 mph SW17.2 kmh SW 15.2 mph24.5 kmh 30.03 in1016.9 mb 0.00 in0.0 mm 0.00 in0.0 mm 0.00 in0.0 mm
12:45 AM 50.7°F10.4°C 40.5°F4.7°C 68% 10.6 mph SW17.1 kmh SW 16.8 mph27.0 kmh 30.03 in1016.9 mb 0.00 in0.0 mm 0.00 in0.0 mm 0.00 in0.0 mm
12:50 AM 50.7°F10.4°C 40.3°F4.6°C 67% 10.1 mph SW16.3 kmh SW 14.5 mph23.3 kmh 30.03 in1016.9 mb 0.00 in0.0 mm 0.00 in0.0 mm 0.00 in0.0 mm
12:55 AM 50.7°F10.4°C 40.2°F4.6°C 67% 10.1 mph SW16.3 kmh SW 14.1 mph22.7 kmh 30.03 in1016.9 mb 0.00 in0.0 mm 0.00 in0.0 mm 0.00 in0.0 mm
01:00 AM 50.9°F10.5°C 40.3°F4.6°C 67% 10.1 mph SW16.3 kmh SW 15.2 mph24.5 kmh 30.03 in1016.9 mb 0.00 in0.0 mm 0.00 in0.0 mm 0.00 in0.0 mm
01:05 AM 50.9°F10.5°C 40.3°F4.6°C 67% 10.1 mph SW16.3 kmh SW 12.5 mph20.1 kmh 30.03 in1016.9 mb 0.00 in0.0 mm 0.00 in0.0 mm 0.00 in0.0 mm
01:10 AM 50.9°F10.5°C 40.3°F4.6°C 67% 10.1 mph SW16.3 kmh SW 12.3 mph19.8 kmh 30.03 in1016.9 mb 0.00 in0.0 mm 0.00 in0.0 mm 0.00 in0.0 mm
01:15 AM 50.9°F10.5°C 40.2°F4.6°C 67% 10.0 mph SW16.1 kmh SW 17.9 mph28.8 kmh 30.03 in1016.9 mb 0.00 in0.0 mm 0.00 in0.0 mm 0.00 in0.0 mm
01:20 AM 51.1°F10.6°C 40.1°F4.5°C 66% 9.6 mph SW15.4 kmh SW 15.2 mph24.5 kmh 30.03 in1016.9 mb 0.00 in0.0 mm 0.00 in0.0 mm 0.00 in0.0 mm
01:25 AM 51.2°F10.7°C 40.2°F4.6°C 66% 9.5 mph SW15.3 kmh SW 14.1 mph22.7 kmh 30.02 in1016.6 mb 0.00 in0.0 mm 0.00 in0.0 mm 0.00 in0.0 mm
01:30 AM 51.3°F10.7°C 39.9°F4.4°C 65% 9.2 mph SW14.8 kmh SW 15.7 mph25.3 kmh 30.02 in1016.6 mb 0.00 in0.0 mm 0.00 in0.0 mm 0.00 in0.0 mm
01:35 AM 51.4°F10.8°C 40.1°F4.5°C 65% 9.3 mph SW15.0 kmh SW 13.4 mph21.6 kmh 30.02 in1016.6 mb 0.00 in0.0 mm 0.00 in0.0 mm 0.00 in0.0 mm
01:40 AM 51.4°F10.8°C 39.9°F4.4°C 64% 10.1 mph WSW16.3 kmh WSW 14.1 mph22.7 kmh 30.02 in1016.6 mb 0.00 in0.0 mm 0.00 in0.0 mm 0.00 in0.0 mm
01:45 AM 51.4°F10.8°C 39.7°F4.3°C 64% 10.1 mph WSW16.3 kmh WSW 16.3 mph26.2 kmh 30.02 in1016.6 mb 0.00 in0.0 mm 0.00 in0.0 mm 0.00 in0.0 mm
01:50 AM 51.4°F10.8°C 39.7°F4.3°C 64% 10.1 mph WSW16.3 kmh WSW 14.8 mph23.8 kmh 30.02 in1016.6 mb 0.00 in0.0 mm 0.00 in0.0 mm 0.00 in0.0 mm
01:55 AM 51.5°F10.8°C 39.8°F4.3°C 64% 10.2 mph WSW16.4 kmh WSW 18.6 mph29.9 kmh 30.02 in1016.6 mb 0.00 in0.0 mm 0.00 in0.0 mm 0.00 in0.0 mm
02:00 AM 51.8°F11.0°C 39.6°F4.2°C 63% 10.7 mph WSW17.2 kmh WSW 23.7 mph38.1 kmh 30.02 in1016.6 mb 0.00 in0.0 mm 0.00 in0.0 mm 0.00 in0.0 mm
02:05 AM 52.0°F11.1°C 39.8°F4.3°C 63% 10.9 mph WSW17.5 kmh WSW 15.7 mph25.3 kmh 30.02 in1016.6 mb 0.00 in0.0 mm 0.00 in0.0 mm 0.00 in0.0 mm
02:10 AM 52.0°F11.1°C 39.4°F4.1°C 62% 11.9 mph WSW19.2 kmh WSW 18.1 mph29.1 kmh 30.01 in1016.3 mb 0.00 in0.0 mm 0.00 in0.0 mm 0.00 in0.0 mm
02:15 AM 52.1°F11.2°C 39.5°F4.2°C 62% 12.0 mph WSW19.3 kmh WSW 25.7 mph41.4 kmh 30.01 in1016.3 mb 0.00 in0.0 mm 0.00 in0.0 mm 0.00 in0.0 mm
02:20 AM 52.2°F11.2°C 39.5°F4.2°C 62% 13.0 mph WSW20.9 kmh WSW 23.0 mph37.0 kmh 30.01 in1016.3 mb 0.00 in0.0 mm 0.00 in0.0 mm 0.00 in0.0 mm
02:25 AM 52.3°F11.3°C 39.6°F4.2°C 62% 13.1 mph WSW21.1 kmh WSW 25.3 mph40.7 kmh 30.01 in1016.3 mb 0.00 in0.0 mm 0.00 in0.0 mm 0.00 in0.0 mm
02:30 AM 52.3°F11.3°C 39.4°F4.1°C 61% 14.1 mph WSW22.7 kmh WSW 24.8 mph39.9 kmh 30.01 in1016.3 mb 0.00 in0.0 mm 0.00 in0.0 mm 0.00 in0.0 mm
02:35 AM 52.3°F11.3°C 39.3°F4.1°C 61% 14.2 mph WSW22.9 kmh WSW 20.8 mph33.5 kmh 30.01 in1016.3 mb 0.00 in0.0 mm 0.00 in0.0 mm 0.00 in0.0 mm
02:40 AM 52.2°F11.2°C 39.1°F3.9°C 61% 14.5 mph WSW23.3 kmh WSW 23.7 mph38.1 kmh 30.01 in1016.3 mb 0.00 in0.0 mm 0.00 in0.0 mm 0.00 in0.0 mm
02:45 AM 52.2°F11.2°C 39.3°F4.1°C 61% 14.4 mph WSW23.2 kmh WSW 24.8 mph39.9 kmh 30.00 in1015.9 mb 0.00 in0.0 mm 0.00 in0.0 mm 0.00 in0.0 mm
02:50 AM 52.0°F11.1°C 39.4°F4.1°C 62% 13.6 mph WSW21.9 kmh WSW 23.5 mph37.8 kmh 30.00 in1015.9 mb 0.00 in0.0 mm 0.00 in0.0 mm 0.00 in0.0 mm
02:55 AM 51.9°F11.1°C 39.3°F4.1°C 62% 13.6 mph WSW21.9 kmh WSW 22.4 mph36.0 kmh 30.00 in1015.9 mb 0.00 in0.0 mm 0.00 in0.0 mm 0.00 in0.0 mm
03:00 AM 51.7°F10.9°C 39.1°F3.9°C 62% 13.4 mph WSW21.6 kmh WSW 27.3 mph43.9 kmh 30.00 in1015.9 mb 0.00 in0.0 mm 0.00 in0.0 mm 0.00 in0.0 mm
03:05 AM 51.6°F10.9°C 39.0°F3.9°C 62% 13.4 mph WSW21.6 kmh WSW 24.6 mph39.6 kmh 30.00 in1015.9 mb 0.00 in0.0 mm 0.00 in0.0 mm 0.00 in0.0 mm
03:10 AM 51.6°F10.9°C 39.0°F3.9°C 62% 13.0 mph WSW20.9 kmh WSW 21.3 mph34.3 kmh 30.01 in1016.3 mb 0.00 in0.0 mm 0.00 in0.0 mm 0.00 in0.0 mm
03:15 AM 51.5°F10.8°C 38.9°F3.8°C 62% 12.7 mph WSW20.4 kmh WSW 17.0 mph27.4 kmh 30.01 in1016.3 mb 0.00 in0.0 mm 0.00 in0.0 mm 0.00 in0.0 mm
03:20 AM 51.4°F10.8°C 38.9°F3.8°C 62% 11.4 mph WSW18.3 kmh WSW 19.0 mph30.6 kmh 30.01 in1016.3 mb 0.00 in0.0 mm 0.00 in0.0 mm 0.00 in0.0 mm
03:25 AM 51.3°F10.7°C 39.1°F3.9°C 63% 11.3 mph WSW18.2 kmh WSW 18.1 mph29.1 kmh 30.01 in1016.3 mb 0.00 in0.0 mm 0.00 in0.0 mm 0.00 in0.0 mm
03:30 AM 51.3°F10.7°C 39.1°F3.9°C 63% 10.7 mph WSW17.2 kmh WSW 19.7 mph31.7 kmh 30.01 in1016.3 mb 0.00 in0.0 mm 0.00 in0.0 mm 0.00 in0.0 mm
03:35 AM 51.3°F10.7°C 39.1°F3.9°C 63% 11.2 mph WSW18.0 kmh WSW 23.0 mph37.0 kmh 30.01 in1016.3 mb 0.00 in0.0 mm 0.00 in0.0 mm 0.00 in0.0 mm
03:40 AM 51.3°F10.7°C 39.1°F3.9°C 63% 13.4 mph WSW21.6 kmh WSW 20.8 mph33.5 kmh 30.01 in1016.3 mb 0.00 in0.0 mm 0.00 in0.0 mm 0.00 in0.0 mm
03:45 AM 51.3°F10.7°C 38.9°F3.8°C 63% 13.3 mph WSW21.4 kmh WSW 21.3 mph34.3 kmh 30.01 in1016.3 mb 0.00 in0.0 mm 0.00 in0.0 mm 0.00 in0.0 mm
03:50 AM 51.3°F10.7°C 38.7°F3.7°C 62% 12.5 mph W20.1 kmh W 17.9 mph28.8 kmh 30.01 in1016.3 mb 0.00 in0.0 mm 0.00 in0.0 mm 0.00 in0.0 mm
03:55 AM 51.3°F10.7°C 38.7°F3.7°C 62% 12.5 mph W20.1 kmh W 20.1 mph32.3 kmh 30.00 in1015.9 mb 0.00 in0.0 mm 0.00 in0.0 mm 0.00 in0.0 mm
04:00 AM 51.3°F10.7°C 38.7°F3.7°C 62% 12.3 mph W19.8 kmh W 18.1 mph29.1 kmh 30.00 in1015.9 mb 0.00 in0.0 mm 0.00 in0.0 mm 0.00 in0.0 mm
04:05 AM 51.3°F10.7°C 38.7°F3.7°C 62% 12.3 mph W19.8 kmh W 21.9 mph35.2 kmh 30.00 in1015.9 mb 0.00 in0.0 mm 0.00 in0.0 mm 0.00 in0.0 mm
04:10 AM 51.3°F10.7°C 38.7°F3.7°C 62% 12.5 mph W20.1 kmh W 18.1 mph29.1 kmh 30.00 in1015.9 mb 0.00 in0.0 mm 0.00 in0.0 mm 0.00 in0.0 mm
04:15 AM 51.3°F10.7°C 38.7°F3.7°C 62% 12.5 mph W20.1 kmh W 18.1 mph29.1 kmh 30.00 in1015.9 mb 0.00 in0.0 mm 0.00 in0.0 mm 0.00 in0.0 mm
04:20 AM 51.1°F10.6°C 38.6°F3.7°C 62% 12.3 mph W19.8 kmh W 17.9 mph28.8 kmh 30.00 in1015.9 mb 0.00 in0.0 mm 0.00 in0.0 mm 0.00 in0.0 mm
04:25 AM 51.1°F10.6°C 38.5°F3.6°C 62% 12.1 mph W19.5 kmh W 14.8 mph23.8 kmh 30.00 in1015.9 mb 0.00 in0.0 mm 0.00 in0.0 mm 0.00 in0.0 mm
04:30 AM 50.8°F10.4°C 38.3°F3.5°C 62% 10.7 mph W17.2 kmh W 15.9 mph25.6 kmh 30.00 in1015.9 mb 0.00 in0.0 mm 0.00 in0.0 mm 0.00 in0.0 mm
04:35 AM 50.7°F10.4°C 38.2°F3.4°C 62% 10.7 mph W17.2 kmh W 19.0 mph30.6 kmh 30.00 in1015.9 mb 0.00 in0.0 mm 0.00 in0.0 mm 0.00 in0.0 mm
04:40 AM 50.7°F10.4°C 38.2°F3.4°C 62% 10.7 mph WSW17.2 kmh WSW 20.4 mph32.8 kmh 30.00 in1015.9 mb 0.00 in0.0 mm 0.00 in0.0 mm 0.00 in0.0 mm
04:45 AM 50.7°F10.4°C 38.2°F3.4°C 62% 10.8 mph WSW17.4 kmh WSW 18.1 mph29.1 kmh 30.00 in1015.9 mb 0.00 in0.0 mm 0.00 in0.0 mm 0.00 in0.0 mm
04:50 AM 50.7°F10.4°C 38.2°F3.4°C 62% 11.2 mph WSW18.0 kmh WSW 19.2 mph30.9 kmh 30.00 in1015.9 mb 0.00 in0.0 mm 0.00 in0.0 mm 0.00 in0.0 mm
04:55 AM 50.7°F10.4°C 38.2°F3.4°C 62% 11.4 mph WSW18.3 kmh WSW 19.2 mph30.9 kmh 30.00 in1015.9 mb 0.00 in0.0 mm 0.00 in0.0 mm 0.00 in0.0 mm
05:00 AM 50.7°F10.4°C 38.2°F3.4°C 62% 12.3 mph WSW19.8 kmh WSW 19.0 mph30.6 kmh 30.00 in1015.9 mb 0.00 in0.0 mm 0.00 in0.0 mm 0.00 in0.0 mm
05:05 AM 50.7°F10.4°C 38.2°F3.4°C 62% 12.3 mph WSW19.8 kmh WSW 20.4 mph32.8 kmh 30.00 in1015.9 mb 0.00 in0.0 mm 0.00 in0.0 mm 0.00 in0.0 mm
05:10 AM 50.7°F10.4°C 38.2°F3.4°C 62% 12.3 mph WSW19.8 kmh WSW 23.5 mph37.8 kmh 30.00 in1015.9 mb 0.00 in0.0 mm 0.00 in0.0 mm 0.00 in0.0 mm
05:15 AM 50.7°F10.4°C 38.2°F3.4°C 62% 12.3 mph WSW19.8 kmh WSW 21.3 mph34.3 kmh 30.00 in1015.9 mb 0.00 in0.0 mm 0.00 in0.0 mm 0.00 in0.0 mm
05:20 AM 50.7°F10.4°C 38.1°F3.4°C 62% 12.5 mph WSW20.1 kmh WSW 21.3 mph34.3 kmh 30.00 in1015.9 mb 0.00 in0.0 mm 0.00 in0.0 mm 0.00 in0.0 mm
05:25 AM 50.6°F10.3°C 38.0°F3.3°C 62% 12.6 mph WSW20.3 kmh WSW 18.6 mph29.9 kmh 30.00 in1015.9 mb 0.00 in0.0 mm 0.00 in0.0 mm 0.00 in0.0 mm
05:30 AM 50.5°F10.3°C 38.0°F3.3°C 62% 13.0 mph WSW20.9 kmh WSW 19.7 mph31.7 kmh 29.99 in1015.6 mb 0.00 in0.0 mm 0.00 in0.0 mm 0.00 in0.0 mm
05:35 AM 50.5°F10.3°C 37.9°F3.3°C 62% 13.1 mph WSW21.1 kmh WSW 24.2 mph38.9 kmh 29.99 in1015.6 mb 0.00 in0.0 mm 0.00 in0.0 mm 0.00 in0.0 mm
05:40 AM 50.7°F10.4°C 37.8°F3.2°C 61% 14.1 mph WSW22.7 kmh WSW 25.7 mph41.4 kmh 29.99 in1015.6 mb 0.00 in0.0 mm 0.00 in0.0 mm 0.00 in0.0 mm
05:45 AM 50.7°F10.4°C 37.8°F3.2°C 61% 14.3 mph WSW23.0 kmh WSW 23.7 mph38.1 kmh 29.99 in1015.6 mb 0.00 in0.0 mm 0.00 in0.0 mm 0.00 in0.0 mm
05:50 AM 50.7°F10.4°C 37.8°F3.2°C 61% 15.2 mph WSW24.5 kmh WSW 24.6 mph39.6 kmh 29.99 in1015.6 mb 0.00 in0.0 mm 0.00 in0.0 mm 0.00 in0.0 mm
05:55 AM 50.7°F10.4°C 37.8°F3.2°C 61% 15.1 mph WSW24.3 kmh WSW 21.5 mph34.6 kmh 29.98 in1015.2 mb 0.00 in0.0 mm 0.00 in0.0 mm 0.00 in0.0 mm
06:00 AM 50.5°F10.3°C 37.6°F3.1°C 61% 14.8 mph WSW23.8 kmh WSW 21.9 mph35.2 kmh 29.98 in1015.2 mb 0.00 in0.0 mm 0.00 in0.0 mm 0.00 in0.0 mm
06:05 AM 50.4°F10.2°C 37.5°F3.1°C 61% 14.6 mph WSW23.5 kmh WSW 23.0 mph37.0 kmh 29.98 in1015.2 mb 0.00 in0.0 mm 0.00 in0.0 mm 0.00 in0.0 mm
06:10 AM 50.4°F10.2°C 37.8°F3.2°C 62% 13.6 mph WSW21.9 kmh WSW 18.1 mph29.1 kmh 29.98 in1015.2 mb 0.00 in0.0 mm 0.00 in0.0 mm 0.00 in0.0 mm
06:15 AM 50.2°F10.1°C 37.7°F3.2°C 62% 13.5 mph WSW21.7 kmh WSW 20.8 mph33.5 kmh 29.98 in1015.2 mb 0.00 in0.0 mm 0.00 in0.0 mm 0.00 in0.0 mm
06:20 AM 50.2°F10.1°C 37.7°F3.2°C 62% 13.0 mph WSW20.9 kmh WSW 24.2 mph38.9 kmh 29.98 in1015.2 mb 0.00 in0.0 mm 0.00 in0.0 mm 0.00 in0.0 mm
06:25 AM 50.2°F10.1°C 37.7°F3.2°C 62% 13.1 mph WSW21.1 kmh WSW 19.0 mph30.6 kmh 29.98 in1015.2 mb 0.00 in0.0 mm 0.00 in0.0 mm 0.00 in0.0 mm
06:30 AM 50.2°F10.1°C 37.7°F3.2°C 62% 14.1 mph WSW22.7 kmh WSW 19.0 mph30.6 kmh 29.98 in1015.2 mb 0.00 in0.0 mm 0.00 in0.0 mm 0.00 in0.0 mm
06:35 AM 50.3°F10.2°C 37.8°F3.2°C 62% 14.0 mph WSW22.5 kmh WSW 19.0 mph30.6 kmh 29.98 in1015.2 mb 0.00 in0.0 mm 0.00 in0.0 mm 0.00 in0.0 mm
06:40 AM 50.4°F10.2°C 37.6°F3.1°C 62% 13.4 mph WSW21.6 kmh WSW 21.5 mph34.6 kmh 29.98 in1015.2 mb 0.00 in0.0 mm 0.00 in0.0 mm 0.00 in0.0 mm
06:45 AM 50.4°F10.2°C 37.5°F3.1°C 61% 13.4 mph WSW21.6 kmh WSW 18.6 mph29.9 kmh 29.98 in1015.2 mb 0.00 in0.0 mm 0.00 in0.0 mm 0.00 in0.0 mm
06:50 AM 50.5°F10.3°C 37.6°F3.1°C 61% 13.4 mph WSW21.6 kmh WSW 23.0 mph37.0 kmh 29.98 in1015.2 mb 0.00 in0.0 mm 0.00 in0.0 mm 0.00 in0.0 mm
06:55 AM 50.5°F10.3°C 37.5°F3.1°C 61% 13.2 mph WSW21.2 kmh WSW 17.9 mph28.8 kmh 29.99 in1015.6 mb 0.00 in0.0 mm 0.00 in0.0 mm 0.00 in0.0 mm
07:00 AM 50.4°F10.2°C 37.4°F3.0°C 61% 12.3 mph WSW19.8 kmh WSW 21.5 mph34.6 kmh 29.99 in1015.6 mb 0.00 in0.0 mm 0.00 in0.0 mm 0.00 in0.0 mm
07:05 AM 50.3°F10.2°C 37.4°F3.0°C 61% 12.5 mph WSW20.1 kmh WSW 19.7 mph31.7 kmh 29.99 in1015.6 mb 0.00 in0.0 mm 0.00 in0.0 mm 0.00 in0.0 mm
07:10 AM 50.2°F10.1°C 37.6°F3.1°C 62% 13.6 mph WSW21.9 kmh WSW 21.9 mph35.2 kmh 29.99 in1015.6 mb 0.00 in0.0 mm 0.00 in0.0 mm 0.00 in0.0 mm
07:15 AM 50.1°F10.1°C 37.6°F3.1°C 62% 13.8 mph WSW22.2 kmh WSW 23.0 mph37.0 kmh 29.99 in1015.6 mb 0.00 in0.0 mm 0.00 in0.0 mm 0.00 in0.0 mm
07:20 AM 50.0°F10.0°C 37.5°F3.1°C 62% 14.5 mph WSW23.3 kmh WSW 20.4 mph32.8 kmh 29.99 in1015.6 mb 0.00 in0.0 mm 0.00 in0.0 mm 0.00 in0.0 mm
07:25 AM 50.0°F10.0°C 37.5°F3.1°C 62% 14.2 mph WSW22.9 kmh WSW 18.6 mph29.9 kmh 29.99 in1015.6 mb 0.00 in0.0 mm 0.00 in0.0 mm 0.00 in0.0 mm
07:30 AM 50.0°F10.0°C 37.5°F3.1°C 62% 12.5 mph WSW20.1 kmh WSW 23.7 mph38.1 kmh 29.99 in1015.6 mb 0.00 in0.0 mm 0.00 in0.0 mm 0.00 in0.0 mm
07:35 AM 49.9°F9.9°C 37.4°F3.0°C 62% 12.4 mph WSW20.0 kmh WSW 20.4 mph32.8 kmh 29.99 in1015.6 mb 0.00 in0.0 mm 0.00 in0.0 mm 0.00 in0.0 mm
07:40 AM 50.1°F10.1°C 37.6°F3.1°C 62% 11.9 mph WSW19.2 kmh WSW 21.9 mph35.2 kmh 29.99 in1015.6 mb 0.00 in0.0 mm 0.00 in0.0 mm 0.00 in0.0 mm
07:45 AM 50.2°F10.1°C 37.7°F3.2°C 62% 12.1 mph WSW19.5 kmh WSW 23.0 mph37.0 kmh 29.99 in1015.6 mb 0.00 in0.0 mm 0.00 in0.0 mm 0.00 in0.0 mm
07:50 AM 50.4°F10.2°C 37.7°F3.2°C 62% 13.4 mph WSW21.6 kmh WSW 23.5 mph37.8 kmh 29.99 in1015.6 mb 0.00 in0.0 mm 0.00 in0.0 mm 0.00 in0.0 mm
07:55 AM 50.4°F10.2°C 37.4°F3.0°C 61% 13.5 mph WSW21.7 kmh WSW 22.4 mph36.0 kmh 30.00 in1015.9 mb 0.00 in0.0 mm 0.00 in0.0 mm 0.00 in0.0 mm
08:00 AM 50.4°F10.2°C 37.4°F3.0°C 61% 13.6 mph WSW21.9 kmh WSW 21.3 mph34.3 kmh 30.00 in1015.9 mb 0.00 in0.0 mm 0.00 in0.0 mm 0.00 in0.0 mm
08:05 AM 50.5°F10.3°C 37.6°F3.1°C 61% 13.6 mph WSW21.9 kmh WSW 21.9 mph35.2 kmh 30.00 in1015.9 mb 0.00 in0.0 mm 0.00 in0.0 mm 0.00 in0.0 mm
08:10 AM 50.5°F10.3°C 37.6°F3.1°C 61% 13.4 mph W21.6 kmh W 18.1 mph29.1 kmh 30.00 in1015.9 mb 0.00 in0.0 mm 0.00 in0.0 mm 0.00 in0.0 mm
08:15 AM 50.5°F10.3°C 37.6°F3.1°C 61% 13.2 mph W21.2 kmh W 19.7 mph31.7 kmh 30.00 in1015.9 mb 0.00 in0.0 mm 0.00 in0.0 mm 0.00 in0.0 mm
08:20 AM 50.5°F10.3°C 37.6°F3.1°C 61% 11.9 mph W19.2 kmh W 19.0 mph30.6 kmh 30.00 in1015.9 mb 0.00 in0.0 mm 0.00 in0.0 mm 0.00 in0.0 mm
08:25 AM 50.6°F10.3°C 37.6°F3.1°C 61% 11.9 mph WSW19.2 kmh WSW 21.3 mph34.3 kmh 30.00 in1015.9 mb 0.00 in0.0 mm 0.00 in0.0 mm 0.00 in0.0 mm
08:30 AM 50.7°F10.4°C 37.8°F3.2°C 61% 12.3 mph WSW19.8 kmh WSW 20.1 mph32.3 kmh 30.00 in1015.9 mb 0.00 in0.0 mm 0.00 in0.0 mm 0.00 in0.0 mm
08:35 AM 50.7°F10.4°C 37.8°F3.2°C 61% 12.3 mph WSW19.8 kmh WSW 20.1 mph32.3 kmh 30.00 in1015.9 mb 0.00 in0.0 mm 0.00 in0.0 mm 0.00 in0.0 mm
08:40 AM 50.7°F10.4°C 37.8°F3.2°C 61% 12.3 mph WSW19.8 kmh WSW 20.1 mph32.3 kmh 30.00 in1015.9 mb 0.00 in0.0 mm 0.00 in0.0 mm 0.00 in0.0 mm
08:45 AM 50.7°F10.4°C 37.8°F3.2°C 61% 12.2 mph WSW19.6 kmh WSW 20.1 mph32.3 kmh 30.00 in1015.9 mb 0.00 in0.0 mm 0.00 in0.0 mm 0.00 in0.0 mm
08:50 AM 50.7°F10.4°C 37.8°F3.2°C 61% 11.9 mph WSW19.2 kmh WSW 20.1 mph32.3 kmh 30.00 in1015.9 mb 0.00 in0.0 mm 0.00 in0.0 mm 0.00 in0.0 mm
08:55 AM 50.7°F10.4°C 37.8°F3.2°C 61% 11.9 mph WSW19.2 kmh WSW 18.6 mph29.9 kmh 30.00 in1015.9 mb 0.00 in0.0 mm 0.00 in0.0 mm 0.00 in0.0 mm
09:00 AM 50.7°F10.4°C 37.8°F3.2°C 61% 11.9 mph WSW19.2 kmh WSW 19.7 mph31.7 kmh 30.00 in1015.9 mb 0.00 in0.0 mm 0.00 in0.0 mm 0.00 in0.0 mm
09:05 AM 50.7°F10.4°C 37.8°F3.2°C 61% 12.0 mph W19.3 kmh W 19.7 mph31.7 kmh 30.00 in1015.9 mb 0.00 in0.0 mm 0.00 in0.0 mm 0.00 in0.0 mm
09:10 AM 50.7°F10.4°C 37.8°F3.2°C 61% 13.0 mph W20.9 kmh W 20.8 mph33.5 kmh 30.00 in1015.9 mb 0.00 in0.0 mm 0.00 in0.0 mm 0.00 in0.0 mm
09:15 AM 50.8°F10.4°C 37.9°F3.3°C 61% 12.9 mph W20.8 kmh W 18.6 mph29.9 kmh 30.00 in1015.9 mb 0.00 in0.0 mm 0.00 in0.0 mm 0.00 in0.0 mm
09:20 AM 51.0°F10.6°C 38.1°F3.4°C 61% 12.5 mph WSW20.1 kmh WSW 19.0 mph30.6 kmh 30.00 in1015.9 mb 0.00 in0.0 mm 0.00 in0.0 mm 0.00 in0.0 mm
09:25 AM 51.2°F10.7°C 38.2°F3.4°C 61% 12.3 mph WSW19.8 kmh WSW 19.0 mph30.6 kmh 30.01 in1016.3 mb 0.00 in0.0 mm 0.00 in0.0 mm 0.00 in0.0 mm
09:30 AM 51.4°F10.8°C 38.0°F3.3°C 60% 11.2 mph WSW18.0 kmh WSW 19.0 mph30.6 kmh 30.01 in1016.3 mb 0.00 in0.0 mm 0.00 in0.0 mm 0.00 in0.0 mm
09:35 AM 51.6°F10.9°C 38.2°F3.4°C 60% 11.4 mph WSW18.3 kmh WSW 25.3 mph40.7 kmh 30.01 in1016.3 mb 0.00 in0.0 mm 0.00 in0.0 mm 0.00 in0.0 mm
09:40 AM 51.6°F10.9°C 38.0°F3.3°C 60% 12.5 mph WSW20.1 kmh WSW 26.8 mph43.1 kmh 30.01 in1016.3 mb 0.00 in0.0 mm 0.00 in0.0 mm 0.00 in0.0 mm
09:45 AM 51.8°F11.0°C 37.9°F3.3°C 59% 12.9 mph WSW20.8 kmh WSW 23.0 mph37.0 kmh 30.01 in1016.3 mb 0.00 in0.0 mm 0.00 in0.0 mm 0.00 in0.0 mm
09:50 AM 52.0°F11.1°C 38.1°F3.4°C 59% 15.2 mph WSW24.5 kmh WSW 25.7 mph41.4 kmh 30.01 in1016.3 mb 0.00 in0.0 mm 0.00 in0.0 mm 0.00 in0.0 mm
09:55 AM 52.1°F11.2°C 38.2°F3.4°C 59% 15.1 mph WSW24.3 kmh WSW 22.6 mph36.4 kmh 30.02 in1016.6 mb 0.00 in0.0 mm 0.00 in0.0 mm 0.00 in0.0 mm
10:00 AM 52.2°F11.2°C 38.3°F3.5°C 59% 14.8 mph WSW23.8 kmh WSW 24.2 mph38.9 kmh 30.02 in1016.6 mb 0.00 in0.0 mm 0.00 in0.0 mm 0.00 in0.0 mm
10:05 AM 52.4°F11.3°C 38.5°F3.6°C 59% 14.8 mph WSW23.8 kmh WSW 21.3 mph34.3 kmh 30.02 in1016.6 mb 0.00 in0.0 mm 0.00 in0.0 mm 0.00 in0.0 mm
10:10 AM 52.7°F11.5°C 38.3°F3.5°C 58% 14.8 mph WSW23.8 kmh WSW 28.4 mph45.7 kmh 30.02 in1016.6 mb 0.00 in0.0 mm 0.00 in0.0 mm 0.00 in0.0 mm
10:15 AM 53.1°F11.7°C 38.6°F3.7°C 58% 14.9 mph WSW24.0 kmh WSW 26.2 mph42.2 kmh 30.02 in1016.6 mb 0.00 in0.0 mm 0.00 in0.0 mm 0.00 in0.0 mm
10:20 AM 53.3°F11.8°C 38.5°F3.6°C 57% 15.7 mph WSW25.3 kmh WSW 24.6 mph39.6 kmh 30.02 in1016.6 mb 0.00 in0.0 mm 0.00 in0.0 mm 0.00 in0.0 mm
10:25 AM 53.7°F12.1°C 38.6°F3.7°C 56% 15.7 mph WSW25.3 kmh WSW 23.7 mph38.1 kmh 30.02 in1016.6 mb 0.00 in0.0 mm 0.00 in0.0 mm 0.00 in0.0 mm
10:30 AM 53.9°F12.2°C 38.6°F3.7°C 56% 15.9 mph WSW25.6 kmh WSW 20.4 mph32.8 kmh 30.03 in1016.9 mb 0.00 in0.0 mm 0.00 in0.0 mm 0.00 in0.0 mm
10:35 AM 54.1°F12.3°C 38.8°F3.8°C 56% 15.5 mph WSW24.9 kmh WSW 24.8 mph39.9 kmh 30.03 in1016.9 mb 0.00 in0.0 mm 0.00 in0.0 mm 0.00 in0.0 mm
10:40 AM 54.4°F12.4°C 38.6°F3.7°C 55% 13.4 mph WSW21.6 kmh WSW 24.8 mph39.9 kmh 30.03 in1016.9 mb 0.00 in0.0 mm 0.00 in0.0 mm 0.00 in0.0 mm
10:45 AM 54.7°F12.6°C 38.7°F3.7°C 55% 13.4 mph WSW21.6 kmh WSW 24.6 mph39.6 kmh 30.03 in1016.9 mb 0.00 in0.0 mm 0.00 in0.0 mm 0.00 in0.0 mm
10:50 AM 54.8°F12.7°C 38.5°F3.6°C 54% 13.0 mph W20.9 kmh W 27.3 mph43.9 kmh 30.03 in1016.9 mb 0.00 in0.0 mm 0.00 in0.0 mm 0.00 in0.0 mm
10:55 AM 55.0°F12.8°C 38.6°F3.7°C 54% 13.1 mph W21.1 kmh W 24.6 mph39.6 kmh 30.03 in1016.9 mb 0.00 in0.0 mm 0.00 in0.0 mm 0.00 in0.0 mm
11:00 AM 55.0°F12.8°C 38.2°F3.4°C 53% 13.6 mph W21.9 kmh W 27.5 mph44.3 kmh 30.03 in1016.9 mb 0.00 in0.0 mm 0.00 in0.0 mm 0.00 in0.0 mm
11:05 AM 55.0°F12.8°C 38.2°F3.4°C 53% 13.9 mph W22.4 kmh W 23.7 mph38.1 kmh 30.03 in1016.9 mb 0.00 in0.0 mm 0.00 in0.0 mm 0.00 in0.0 mm
11:10 AM 55.0°F12.8°C 38.2°F3.4°C 53% 15.2 mph W24.5 kmh W 30.6 mph49.2 kmh 30.04 in1017.3 mb 0.00 in0.0 mm 0.00 in0.0 mm 0.00 in0.0 mm
11:15 AM 55.0°F12.8°C 38.2°F3.4°C 53% 15.5 mph W24.9 kmh W 26.4 mph42.5 kmh 30.04 in1017.3 mb 0.00 in0.0 mm 0.00 in0.0 mm 0.00 in0.0 mm
11:20 AM 55.0°F12.8°C 38.2°F3.4°C 53% 17.0 mph W27.4 kmh W 26.8 mph43.1 kmh 30.04 in1017.3 mb 0.00 in0.0 mm 0.00 in0.0 mm 0.00 in0.0 mm
11:25 AM 55.1°F12.8°C 38.3°F3.5°C 53% 16.7 mph W26.9 kmh W 24.6 mph39.6 kmh 30.04 in1017.3 mb 0.00 in0.0 mm 0.00 in0.0 mm 0.00 in0.0 mm
11:30 AM 55.2°F12.9°C 38.3°F3.5°C 53% 14.8 mph W23.8 kmh W 22.4 mph36.0 kmh 30.04 in1017.3 mb 0.00 in0.0 mm 0.00 in0.0 mm 0.00 in0.0 mm
11:35 AM 55.3°F12.9°C 38.1°F3.4°C 52% 14.5 mph W23.3 kmh W 23.0 mph37.0 kmh 30.04 in1017.3 mb 0.00 in0.0 mm 0.00 in0.0 mm 0.00 in0.0 mm
11:40 AM 55.5°F13.1°C 38.2°F3.4°C 52% 13.0 mph W20.9 kmh W 19.2 mph30.9 kmh 30.03 in1016.9 mb 0.00 in0.0 mm 0.00 in0.0 mm 0.00 in0.0 mm
11:45 AM 55.6°F13.1°C 38.3°F3.5°C 52% 13.0 mph W20.9 kmh W 20.4 mph32.8 kmh 30.03 in1016.9 mb 0.00 in0.0 mm 0.00 in0.0 mm 0.00 in0.0 mm
11:50 AM 55.8°F13.2°C 38.4°F3.6°C 52% 13.0 mph W20.9 kmh W 20.1 mph32.3 kmh 30.03 in1016.9 mb 0.00 in0.0 mm 0.00 in0.0 mm 0.00 in0.0 mm
11:55 AM 55.9°F13.3°C 38.3°F3.5°C 52% 12.6 mph W20.3 kmh W 19.2 mph30.9 kmh 30.03 in1016.9 mb 0.00 in0.0 mm 0.00 in0.0 mm 0.00 in0.0 mm
12:00 PM 56.0°F13.3°C 38.3°F3.5°C 51% 10.3 mph W16.6 kmh W 19.0 mph30.6 kmh 30.03 in1016.9 mb 0.00 in0.0 mm 0.00 in0.0 mm 0.00 in0.0 mm
12:05 PM 56.1°F13.4°C 38.2°F3.4°C 51% 10.4 mph W16.7 kmh W 17.0 mph27.4 kmh 30.03 in1016.9 mb 0.00 in0.0 mm 0.00 in0.0 mm 0.00 in0.0 mm
12:10 PM 56.2°F13.4°C 38.3°F3.5°C 51% 11.2 mph W18.0 kmh W 23.7 mph38.1 kmh 30.03 in1016.9 mb 0.00 in0.0 mm 0.00 in0.0 mm 0.00 in0.0 mm
12:15 PM 56.4°F13.6°C 38.5°F3.6°C 51% 11.3 mph W18.2 kmh W 20.4 mph32.8 kmh 30.04 in1017.3 mb 0.00 in0.0 mm 0.00 in0.0 mm 0.00 in0.0 mm
12:20 PM 56.5°F13.6°C 38.6°F3.7°C 51% 11.9 mph W19.2 kmh W 24.2 mph38.9 kmh 30.04 in1017.3 mb 0.00 in0.0 mm 0.00 in0.0 mm 0.00 in0.0 mm
12:25 PM 56.5°F13.6°C 38.6°F3.7°C 51% 11.9 mph W19.2 kmh W 18.6 mph29.9 kmh 30.03 in1016.9 mb 0.00 in0.0 mm 0.00 in0.0 mm 0.00 in0.0 mm
12:30 PM 56.6°F13.7°C 38.6°F3.7°C 51% 12.3 mph W19.8 kmh W 19.2 mph30.9 kmh 30.03 in1016.9 mb 0.00 in0.0 mm 0.00 in0.0 mm 0.00 in0.0 mm
12:35 PM 56.7°F13.7°C 38.3°F3.5°C 50% 12.3 mph W19.8 kmh W 20.4 mph32.8 kmh 30.03 in1016.9 mb 0.00 in0.0 mm 0.00 in0.0 mm 0.00 in0.0 mm
12:40 PM 56.9°F13.8°C 38.4°F3.6°C 50% 12.3 mph W19.8 kmh W 20.1 mph32.3 kmh 30.02 in1016.6 mb 0.00 in0.0 mm 0.00 in0.0 mm 0.00 in0.0 mm
12:45 PM 57.0°F13.9°C 38.6°F3.7°C 50% 12.1 mph W19.5 kmh W 18.6 mph29.9 kmh 30.02 in1016.6 mb 0.00 in0.0 mm 0.00 in0.0 mm 0.00 in0.0 mm
12:50 PM 57.2°F14.0°C 38.3°F3.5°C 49% 11.2 mph W18.0 kmh W 20.4 mph32.8 kmh 30.02 in1016.6 mb 0.00 in0.0 mm 0.00 in0.0 mm 0.00 in0.0 mm
12:55 PM 57.3°F14.1°C 38.3°F3.5°C 49% 11.5 mph W18.5 kmh W 20.4 mph32.8 kmh 30.02 in1016.6 mb 0.00 in0.0 mm 0.00 in0.0 mm 0.00 in0.0 mm
01:00 PM 57.4°F14.1°C 38.4°F3.6°C 49% 13.4 mph W21.6 kmh W 20.1 mph32.3 kmh 30.02 in1016.6 mb 0.00 in0.0 mm 0.00 in0.0 mm 0.00 in0.0 mm
01:05 PM 57.4°F14.1°C 38.4°F3.6°C 49% 13.3 mph W21.4 kmh W 19.2 mph30.9 kmh 30.02 in1016.6 mb 0.00 in0.0 mm 0.00 in0.0 mm 0.00 in0.0 mm
01:10 PM 57.6°F14.2°C 38.5°F3.6°C 49% 12.5 mph W20.1 kmh W 19.0 mph30.6 kmh 30.01 in1016.3 mb 0.00 in0.0 mm 0.00 in0.0 mm 0.00 in0.0 mm
01:15 PM 57.6°F14.2°C 38.6°F3.7°C 49% 12.4 mph W20.0 kmh W 20.1 mph32.3 kmh 30.01 in1016.3 mb 0.00 in0.0 mm 0.00 in0.0 mm 0.00 in0.0 mm
01:20 PM 57.7°F14.3°C 38.4°F3.6°C 48% 11.9 mph W19.2 kmh W 21.3 mph34.3 kmh 30.01 in1016.3 mb 0.00 in0.0 mm 0.00 in0.0 mm 0.00 in0.0 mm
01:25 PM 57.7°F14.3°C 38.3°F3.5°C 48% 12.0 mph W19.3 kmh W 18.1 mph29.1 kmh 30.01 in1016.3 mb 0.00 in0.0 mm 0.00 in0.0 mm 0.00 in0.0 mm
01:30 PM 57.8°F14.3°C 38.2°F3.4°C 48% 12.5 mph W20.1 kmh W 22.4 mph36.0 kmh 30.01 in1016.3 mb 0.00 in0.0 mm 0.00 in0.0 mm 0.00 in0.0 mm
01:35 PM 57.9°F14.4°C 38.3°F3.5°C 48% 12.5 mph W20.1 kmh W 20.8 mph33.5 kmh 30.01 in1016.3 mb 0.00 in0.0 mm 0.00 in0.0 mm 0.00 in0.0 mm
01:40 PM 57.9°F14.4°C 38.4°F3.6°C 48% 12.3 mph W19.8 kmh W 19.7 mph31.7 kmh 30.00 in1015.9 mb 0.00 in0.0 mm 0.00 in0.0 mm 0.00 in0.0 mm
01:45 PM 58.1°F14.5°C 38.5°F3.6°C 48% 12.5 mph W20.1 kmh W 20.4 mph32.8 kmh 30.00 in1015.9 mb 0.00 in0.0 mm 0.00 in0.0 mm 0.00 in0.0 mm
01:50 PM 58.1°F14.5°C 38.5°F3.6°C 48% 13.4 mph W21.6 kmh W 19.0 mph30.6 kmh 30.00 in1015.9 mb 0.00 in0.0 mm 0.00 in0.0 mm 0.00 in0.0 mm
01:55 PM 58.3°F14.6°C 38.9°F3.8°C 49% 12.9 mph W20.8 kmh W 14.1 mph22.7 kmh 30.00 in1015.9 mb 0.00 in0.0 mm 0.00 in0.0 mm 0.00 in0.0 mm
02:00 PM 58.4°F14.7°C 38.9°F3.8°C 48% 10.1 mph WSW16.3 kmh WSW 12.5 mph20.1 kmh 30.00 in1015.9 mb 0.00 in0.0 mm 0.00 in0.0 mm 0.00 in0.0 mm
02:05 PM 58.5°F14.7°C 38.9°F3.8°C 48% 9.9 mph W15.9 kmh W 15.9 mph25.6 kmh 30.00 in1015.9 mb 0.00 in0.0 mm 0.00 in0.0 mm 0.00 in0.0 mm
02:10 PM 58.6°F14.8°C 39.0°F3.9°C 48% 8.7 mph W14.0 kmh W 13.0 mph20.9 kmh 30.00 in1015.9 mb 0.00 in0.0 mm 0.00 in0.0 mm 0.00 in0.0 mm
02:15 PM 58.7°F14.8°C 38.6°F3.7°C 47% 8.8 mph W14.2 kmh W 16.3 mph26.2 kmh 30.00 in1015.9 mb 0.00 in0.0 mm 0.00 in0.0 mm 0.00 in0.0 mm
02:20 PM 58.7°F14.8°C 38.5°F3.6°C 47% 9.2 mph W14.8 kmh W 15.7 mph25.3 kmh 30.00 in1015.9 mb 0.00 in0.0 mm 0.00 in0.0 mm 0.00 in0.0 mm
02:25 PM 58.8°F14.9°C 38.4°F3.6°C 47% 9.5 mph W15.3 kmh W 16.8 mph27.0 kmh 30.00 in1015.9 mb 0.00 in0.0 mm 0.00 in0.0 mm 0.00 in0.0 mm
02:30 PM 58.8°F14.9°C 38.1°F3.4°C 46% 11.2 mph W18.0 kmh W 15.2 mph24.5 kmh 29.99 in1015.6 mb 0.00 in0.0 mm 0.00 in0.0 mm 0.00 in0.0 mm
02:35 PM 58.9°F14.9°C 38.1°F3.4°C 46% 11.0 mph W17.7 kmh W 14.8 mph23.8 kmh 29.99 in1015.6 mb 0.00 in0.0 mm 0.00 in0.0 mm 0.00 in0.0 mm
02:40 PM 59.0°F15.0°C 37.7°F3.2°C 45% 10.3 mph W16.6 kmh W 14.8 mph23.8 kmh 29.99 in1015.6 mb 0.00 in0.0 mm 0.00 in0.0 mm 0.00 in0.0 mm
02:45 PM 59.2°F15.1°C 37.8°F3.2°C 45% 10.0 mph W16.1 kmh W 14.8 mph23.8 kmh 29.99 in1015.6 mb 0.00 in0.0 mm 0.00 in0.0 mm 0.00 in0.0 mm
02:50 PM 59.2°F15.1°C 37.9°F3.3°C 45% 8.5 mph W13.7 kmh W 12.3 mph19.8 kmh 29.99 in1015.6 mb 0.00 in0.0 mm 0.00 in0.0 mm 0.00 in0.0 mm
02:55 PM 59.2°F15.1°C 37.9°F3.3°C 45% 8.5 mph W13.7 kmh W 12.5 mph20.1 kmh 29.99 in1015.6 mb 0.00 in0.0 mm 0.00 in0.0 mm 0.00 in0.0 mm
03:00 PM 59.2°F15.1°C 37.8°F3.2°C 45% 8.7 mph WNW14.0 kmh WNW 10.7 mph17.2 kmh 29.99 in1015.6 mb 0.00 in0.0 mm 0.00 in0.0 mm 0.00 in0.0 mm
03:05 PM 59.2°F15.1°C 37.9°F3.3°C 45% 8.4 mph WNW13.5 kmh WNW 12.3 mph19.8 kmh 29.99 in1015.6 mb 0.00 in0.0 mm 0.00 in0.0 mm 0.00 in0.0 mm
03:10 PM 59.2°F15.1°C 37.9°F3.3°C 45% 6.9 mph WNW11.1 kmh WNW 10.7 mph17.2 kmh 29.99 in1015.6 mb 0.00 in0.0 mm 0.00 in0.0 mm 0.00 in0.0 mm
03:15 PM 59.2°F15.1°C 37.9°F3.3°C 45% 6.9 mph WNW11.1 kmh WNW 10.7 mph17.2 kmh 29.98 in1015.2 mb 0.00 in0.0 mm 0.00 in0.0 mm 0.00 in0.0 mm
03:20 PM 59.3°F15.2°C 38.0°F3.3°C 45% 6.9 mph WNW11.1 kmh WNW 12.3 mph19.8 kmh 29.98 in1015.2 mb 0.00 in0.0 mm 0.00 in0.0 mm 0.00 in0.0 mm
03:25 PM 59.4°F15.2°C 37.5°F3.1°C 44% 7.0 mph WNW11.3 kmh WNW 13.4 mph21.6 kmh 29.98 in1015.2 mb 0.00 in0.0 mm 0.00 in0.0 mm 0.00 in0.0 mm
03:30 PM 59.5°F15.3°C 37.6°F3.1°C 44% 7.6 mph WNW12.2 kmh WNW 12.5 mph20.1 kmh 29.98 in1015.2 mb 0.00 in0.0 mm 0.00 in0.0 mm 0.00 in0.0 mm
03:35 PM 59.6°F15.3°C 37.7°F3.2°C 44% 7.4 mph WNW11.9 kmh WNW 11.9 mph19.2 kmh 29.98 in1015.2 mb 0.00 in0.0 mm 0.00 in0.0 mm 0.00 in0.0 mm
03:40 PM 59.7°F15.4°C 37.8°F3.2°C 44% 6.3 mph W10.1 kmh W 14.1 mph22.7 kmh 29.98 in1015.2 mb 0.00 in0.0 mm 0.00 in0.0 mm 0.00 in0.0 mm
03:45 PM 59.8°F15.4°C 37.8°F3.2°C 44% 6.5 mph W10.5 kmh W 13.6 mph21.9 kmh 29.98 in1015.2 mb 0.00 in0.0 mm 0.00 in0.0 mm 0.00 in0.0 mm
03:50 PM 60.0°F15.6°C 38.0°F3.3°C 44% 8.1 mph W13.0 kmh W 10.1 mph16.3 kmh 29.98 in1015.2 mb 0.00 in0.0 mm 0.00 in0.0 mm 0.00 in0.0 mm
03:55 PM 60.2°F15.7°C 37.7°F3.2°C 43% 7.7 mph W12.4 kmh W 13.6 mph21.9 kmh 29.98 in1015.2 mb 0.00 in0.0 mm 0.00 in0.0 mm 0.00 in0.0 mm
04:00 PM 60.3°F15.7°C 37.7°F3.2°C 43% 5.8 mph W9.3 kmh W 12.5 mph20.1 kmh 29.98 in1015.2 mb 0.00 in0.0 mm 0.00 in0.0 mm 0.00 in0.0 mm
04:05 PM 60.3°F15.7°C 37.7°F3.2°C 43% 6.2 mph W10.0 kmh W 12.5 mph20.1 kmh 29.98 in1015.2 mb 0.00 in0.0 mm 0.00 in0.0 mm 0.00 in0.0 mm
04:10 PM 60.3°F15.7°C 37.7°F3.2°C 43% 8.5 mph W13.7 kmh W 14.5 mph23.3 kmh 29.99 in1015.6 mb 0.00 in0.0 mm 0.00 in0.0 mm 0.00 in0.0 mm
04:15 PM 60.2°F15.7°C 37.6°F3.1°C 43% 8.4 mph W13.5 kmh W 9.6 mph15.4 kmh 29.99 in1015.6 mb 0.00 in0.0 mm 0.00 in0.0 mm 0.00 in0.0 mm
04:20 PM 60.1°F15.6°C 37.5°F3.1°C 43% 8.1 mph W13.0 kmh W 10.1 mph16.3 kmh 29.99 in1015.6 mb 0.00 in0.0 mm 0.00 in0.0 mm 0.00 in0.0 mm
04:25 PM 59.8°F15.4°C 37.3°F2.9°C 43% 7.8 mph WSW12.6 kmh WSW 11.2 mph18.0 kmh 29.99 in1015.6 mb 0.00 in0.0 mm 0.00 in0.0 mm 0.00 in0.0 mm
04:30 PM 59.7°F15.4°C 37.3°F2.9°C 43% 6.5 mph WSW10.5 kmh WSW 10.3 mph16.6 kmh 29.99 in1015.6 mb 0.00 in0.0 mm 0.00 in0.0 mm 0.00 in0.0 mm
04:35 PM 59.5°F15.3°C 37.0°F2.8°C 43% 6.3 mph WSW10.1 kmh WSW 9.6 mph15.4 kmh 29.99 in1015.6 mb 0.00 in0.0 mm 0.00 in0.0 mm 0.00 in0.0 mm
04:40 PM 59.5°F15.3°C 37.4°F3.0°C 44% 5.4 mph WSW8.7 kmh WSW 10.7 mph17.2 kmh 29.99 in1015.6 mb 0.00 in0.0 mm 0.00 in0.0 mm 0.00 in0.0 mm
04:45 PM 59.5°F15.3°C 37.2°F2.9°C 43% 5.4 mph WSW8.7 kmh WSW 11.9 mph19.2 kmh 29.99 in1015.6 mb 0.00 in0.0 mm 0.00 in0.0 mm 0.00 in0.0 mm
04:50 PM 59.5°F15.3°C 37.0°F2.8°C 43% 5.8 mph WSW9.3 kmh WSW 8.5 mph13.7 kmh 29.99 in1015.6 mb 0.00 in0.0 mm 0.00 in0.0 mm 0.00 in0.0 mm
04:55 PM 59.5°F15.3°C 37.0°F2.8°C 43% 5.6 mph WSW9.0 kmh WSW 6.9 mph11.1 kmh 29.99 in1015.6 mb 0.00 in0.0 mm 0.00 in0.0 mm 0.00 in0.0 mm
05:00 PM 59.4°F15.2°C 36.9°F2.7°C 43% 4.7 mph WSW7.6 kmh WSW 8.7 mph14.0 kmh 29.99 in1015.6 mb 0.00 in0.0 mm 0.00 in0.0 mm 0.00 in0.0 mm
05:05 PM 59.3°F15.2°C 36.8°F2.7°C 43% 4.7 mph WSW7.6 kmh WSW 8.7 mph14.0 kmh 29.99 in1015.6 mb 0.00 in0.0 mm 0.00 in0.0 mm 0.00 in0.0 mm
05:10 PM 59.2°F15.1°C 37.2°F2.9°C 44% 4.7 mph WSW7.6 kmh WSW 6.9 mph11.1 kmh 29.99 in1015.6 mb 0.00 in0.0 mm 0.00 in0.0 mm 0.00 in0.0 mm
05:15 PM 59.2°F15.1°C 37.3°F2.9°C 44% 4.6 mph WSW7.4 kmh WSW 6.5 mph10.5 kmh 29.99 in1015.6 mb 0.00 in0.0 mm 0.00 in0.0 mm 0.00 in0.0 mm
05:20 PM 59.0°F15.0°C 37.1°F2.8°C 44% 4.0 mph SW6.4 kmh SW 8.1 mph13.0 kmh 29.99 in1015.6 mb 0.00 in0.0 mm 0.00 in0.0 mm 0.00 in0.0 mm
05:25 PM 58.8°F14.9°C 37.3°F2.9°C 45% 4.1 mph SW6.6 kmh SW 6.3 mph10.1 kmh 29.99 in1015.6 mb 0.00 in0.0 mm 0.00 in0.0 mm 0.00 in0.0 mm
05:30 PM 58.7°F14.8°C 37.4°F3.0°C 45% 4.7 mph SW7.6 kmh SW 5.8 mph9.3 kmh 29.99 in1015.6 mb 0.00 in0.0 mm 0.00 in0.0 mm 0.00 in0.0 mm
05:35 PM 58.6°F14.8°C 37.4°F3.0°C 45% 4.6 mph SW7.4 kmh SW 7.4 mph11.9 kmh 29.99 in1015.6 mb 0.00 in0.0 mm 0.00 in0.0 mm 0.00 in0.0 mm
05:40 PM 58.5°F14.7°C 37.2°F2.9°C 45% 4.3 mph SW6.9 kmh SW 6.3 mph10.1 kmh 29.99 in1015.6 mb 0.00 in0.0 mm 0.00 in0.0 mm 0.00 in0.0 mm
05:45 PM 58.4°F14.7°C 37.3°F2.9°C 45% 4.3 mph SW6.9 kmh SW 5.4 mph8.7 kmh 29.99 in1015.6 mb 0.00 in0.0 mm 0.00 in0.0 mm 0.00 in0.0 mm
05:50 PM 58.3°F14.6°C 37.6°F3.1°C 46% 4.3 mph WSW6.9 kmh WSW 7.4 mph11.9 kmh 29.99 in1015.6 mb 0.00 in0.0 mm 0.00 in0.0 mm 0.00 in0.0 mm
05:55 PM 58.1°F14.5°C 37.4°F3.0°C 46% 4.4 mph WSW7.1 kmh WSW 6.9 mph11.1 kmh 30.00 in1015.9 mb 0.00 in0.0 mm 0.00 in0.0 mm 0.00 in0.0 mm
06:00 PM 57.9°F14.4°C 37.3°F2.9°C 46% 5.1 mph SW8.2 kmh SW 6.5 mph10.5 kmh 30.00 in1015.9 mb 0.00 in0.0 mm 0.00 in0.0 mm 0.00 in0.0 mm
06:05 PM 57.8°F14.3°C 37.3°F2.9°C 46% 5.1 mph SW8.2 kmh SW 7.4 mph11.9 kmh 30.00 in1015.9 mb 0.00 in0.0 mm 0.00 in0.0 mm 0.00 in0.0 mm
06:10 PM 57.6°F14.2°C 37.5°F3.1°C 47% 5.1 mph SW8.2 kmh SW 5.4 mph8.7 kmh 30.00 in1015.9 mb 0.00 in0.0 mm 0.00 in0.0 mm 0.00 in0.0 mm
06:15 PM 57.5°F14.2°C 38.7°F3.7°C 49% 4.9 mph SW7.9 kmh SW 5.1 mph8.2 kmh 30.00 in1015.9 mb 0.00 in0.0 mm 0.00 in0.0 mm 0.00 in0.0 mm
06:20 PM 57.2°F14.0°C 40.9°F4.9°C 54% 3.6 mph NW5.8 kmh NW 4.7 mph7.6 kmh 30.00 in1015.9 mb 0.00 in0.0 mm 0.00 in0.0 mm 0.00 in0.0 mm
06:25 PM 56.8°F13.8°C 41.5°F5.3°C 57% 3.5 mph NW5.6 kmh NW 5.4 mph8.7 kmh 30.00 in1015.9 mb 0.00 in0.0 mm 0.00 in0.0 mm 0.00 in0.0 mm
06:30 PM 56.5°F13.6°C 41.9°F5.5°C 58% 3.1 mph N5.0 kmh N 7.4 mph11.9 kmh 30.00 in1015.9 mb 0.00 in0.0 mm 0.00 in0.0 mm 0.00 in0.0 mm
06:35 PM 56.1°F13.4°C 42.3°F5.7°C 60% 3.4 mph N5.5 kmh N 7.6 mph12.2 kmh 30.00 in1015.9 mb 0.00 in0.0 mm 0.00 in0.0 mm 0.00 in0.0 mm
06:40 PM 55.9°F13.3°C 42.5°F5.8°C 61% 5.1 mph NNW8.2 kmh NNW 7.4 mph11.9 kmh 30.01 in1016.3 mb 0.00 in0.0 mm 0.00 in0.0 mm 0.00 in0.0 mm
06:45 PM 55.8°F13.2°C 42.6°F5.9°C 61% 5.2 mph NNW8.4 kmh NNW 6.9 mph11.1 kmh 30.01 in1016.3 mb 0.00 in0.0 mm 0.00 in0.0 mm 0.00 in0.0 mm
06:50 PM 55.7°F13.2°C 43.0°F6.1°C 62% 5.4 mph N8.7 kmh N 8.7 mph14.0 kmh 30.01 in1016.3 mb 0.00 in0.0 mm 0.00 in0.0 mm 0.00 in0.0 mm
06:55 PM 55.6°F13.1°C 43.6°F6.4°C 64% 5.4 mph N8.7 kmh N 8.1 mph13.0 kmh 30.01 in1016.3 mb 0.00 in0.0 mm 0.00 in0.0 mm 0.00 in0.0 mm
07:00 PM 55.6°F13.1°C 44.1°F6.7°C 65% 5.4 mph NNW8.7 kmh NNW 6.9 mph11.1 kmh 30.01 in1016.3 mb 0.00 in0.0 mm 0.00 in0.0 mm 0.00 in0.0 mm
07:05 PM 55.6°F13.1°C 44.4°F6.9°C 66% 5.3 mph NNW8.5 kmh NNW 10.3 mph16.6 kmh 30.01 in1016.3 mb 0.00 in0.0 mm 0.00 in0.0 mm 0.00 in0.0 mm
07:10 PM 55.6°F13.1°C 44.7°F7.1°C 67% 5.1 mph NNW8.2 kmh NNW 8.7 mph14.0 kmh 30.02 in1016.6 mb 0.00 in0.0 mm 0.00 in0.0 mm 0.00 in0.0 mm
07:15 PM 55.5°F13.1°C 44.7°F7.1°C 67% 5.0 mph N8.0 kmh N 8.5 mph13.7 kmh 30.02 in1016.6 mb 0.00 in0.0 mm 0.00 in0.0 mm 0.00 in0.0 mm
07:20 PM 55.0°F12.8°C 44.1°F6.7°C 67% 4.3 mph N6.9 kmh N 11.2 mph18.0 kmh 30.02 in1016.6 mb 0.00 in0.0 mm 0.00 in0.0 mm 0.00 in0.0 mm
07:25 PM 54.9°F12.7°C 44.5°F6.9°C 68% 4.5 mph NNE7.2 kmh NNE 10.3 mph16.6 kmh 30.02 in1016.6 mb 0.00 in0.0 mm 0.00 in0.0 mm 0.00 in0.0 mm
07:30 PM 54.9°F12.7°C 44.1°F6.7°C 67% 5.8 mph NE9.3 kmh NE 6.9 mph11.1 kmh 30.03 in1016.9 mb 0.00 in0.0 mm 0.00 in0.0 mm 0.00 in0.0 mm
07:35 PM 54.7°F12.6°C 44.0°F6.7°C 67% 5.5 mph NE8.9 kmh NE 5.8 mph9.3 kmh 30.03 in1016.9 mb 0.00 in0.0 mm 0.00 in0.0 mm 0.00 in0.0 mm
07:40 PM 54.7°F12.6°C 43.6°F6.4°C 66% 4.0 mph NE6.4 kmh NE 5.8 mph9.3 kmh 30.03 in1016.9 mb 0.00 in0.0 mm 0.00 in0.0 mm 0.00 in0.0 mm
07:45 PM 54.7°F12.6°C 43.0°F6.1°C 65% 4.0 mph ENE6.4 kmh ENE 6.9 mph11.1 kmh 30.03 in1016.9 mb 0.00 in0.0 mm 0.00 in0.0 mm 0.00 in0.0 mm
07:50 PM 54.7°F12.6°C 42.7°F5.9°C 64% 4.0 mph ENE6.4 kmh ENE 6.5 mph10.5 kmh 30.03 in1016.9 mb 0.00 in0.0 mm 0.00 in0.0 mm 0.00 in0.0 mm
07:55 PM 54.7°F12.6°C 42.7°F5.9°C 64% 4.2 mph ENE6.8 kmh ENE 7.6 mph12.2 kmh 30.03 in1016.9 mb 0.00 in0.0 mm 0.00 in0.0 mm 0.00 in0.0 mm
08:00 PM 54.7°F12.6°C 42.7°F5.9°C 64% 5.1 mph NE8.2 kmh NE 7.4 mph11.9 kmh 30.03 in1016.9 mb 0.00 in0.0 mm 0.00 in0.0 mm 0.00 in0.0 mm
08:05 PM 54.7°F12.6°C 42.7°F5.9°C 64% 5.2 mph NE8.4 kmh NE 6.9 mph11.1 kmh 30.03 in1016.9 mb 0.00 in0.0 mm 0.00 in0.0 mm 0.00 in0.0 mm
08:10 PM 54.7°F12.6°C 42.7°F5.9°C 64% 5.4 mph NE8.7 kmh NE 6.9 mph11.1 kmh 30.04 in1017.3 mb 0.00 in0.0 mm 0.00 in0.0 mm 0.00 in0.0 mm
08:15 PM 54.7°F12.6°C 42.7°F5.9°C 64% 5.3 mph NE8.5 kmh NE 6.5 mph10.5 kmh 30.04 in1017.3 mb 0.00 in0.0 mm 0.00 in0.0 mm 0.00 in0.0 mm
08:20 PM 54.7°F12.6°C 42.8°F6.0°C 64% 5.1 mph NE8.2 kmh NE 6.9 mph11.1 kmh 30.04 in1017.3 mb 0.00 in0.0 mm 0.00 in0.0 mm 0.00 in0.0 mm
08:25 PM 54.4°F12.4°C 42.9°F6.1°C 65% 5.1 mph NE8.2 kmh NE 6.9 mph11.1 kmh 30.04 in1017.3 mb 0.00 in0.0 mm 0.00 in0.0 mm 0.00 in0.0 mm
08:30 PM 54.3°F12.4°C 43.1°F6.2°C 66% 4.7 mph NE7.6 kmh NE 6.9 mph11.1 kmh 30.04 in1017.3 mb 0.00 in0.0 mm 0.00 in0.0 mm 0.00 in0.0 mm
08:35 PM 54.1°F12.3°C 43.5°F6.4°C 67% 4.8 mph NE7.7 kmh NE 9.2 mph14.8 kmh 30.04 in1017.3 mb 0.00 in0.0 mm 0.00 in0.0 mm 0.00 in0.0 mm
08:40 PM 54.2°F12.3°C 44.2°F6.8°C 69% 5.1 mph NE8.2 kmh NE 6.5 mph10.5 kmh 30.05 in1017.6 mb 0.00 in0.0 mm 0.00 in0.0 mm 0.00 in0.0 mm
08:45 PM 54.2°F12.3°C 44.3°F6.8°C 69% 5.0 mph NE8.0 kmh NE 5.1 mph8.2 kmh 30.05 in1017.6 mb 0.00 in0.0 mm 0.00 in0.0 mm 0.00 in0.0 mm
08:50 PM 54.1°F12.3°C 44.5°F6.9°C 70% 4.3 mph NE6.9 kmh NE 6.9 mph11.1 kmh 30.05 in1017.6 mb 0.00 in0.0 mm 0.00 in0.0 mm 0.00 in0.0 mm
08:55 PM 53.9°F12.2°C 44.5°F6.9°C 70% 4.3 mph NNE6.9 kmh NNE 6.9 mph11.1 kmh 30.05 in1017.6 mb 0.00 in0.0 mm 0.00 in0.0 mm 0.00 in0.0 mm
09:00 PM 54.0°F12.2°C 45.1°F7.3°C 72% 4.7 mph N7.6 kmh N 6.5 mph10.5 kmh 30.05 in1017.6 mb 0.00 in0.0 mm 0.00 in0.0 mm 0.00 in0.0 mm
09:05 PM 53.9°F12.2°C 45.2°F7.3°C 73% 4.6 mph N7.4 kmh N 5.1 mph8.2 kmh 30.05 in1017.6 mb 0.00 in0.0 mm 0.00 in0.0 mm 0.00 in0.0 mm
09:10 PM 53.9°F12.2°C 45.6°F7.6°C 74% 4.0 mph NNE6.4 kmh NNE 5.8 mph9.3 kmh 30.05 in1017.6 mb 0.00 in0.0 mm 0.00 in0.0 mm 0.00 in0.0 mm
09:15 PM 54.0°F12.2°C 46.1°F7.8°C 75% 3.9 mph NNE6.3 kmh NNE 5.1 mph8.2 kmh 30.05 in1017.6 mb 0.00 in0.0 mm 0.00 in0.0 mm 0.00 in0.0 mm
09:20 PM 54.0°F12.2°C 46.0°F7.8°C 74% 3.1 mph NE5.0 kmh NE 5.1 mph8.2 kmh 30.05 in1017.6 mb 0.00 in0.0 mm 0.00 in0.0 mm 0.00 in0.0 mm
09:25 PM 53.8°F12.1°C 45.9°F7.7°C 75% 3.1 mph NE5.0 kmh NE 5.1 mph8.2 kmh 30.05 in1017.6 mb 0.00 in0.0 mm 0.00 in0.0 mm 0.00 in0.0 mm
09:30 PM 53.8°F12.1°C 46.3°F7.9°C 76% 3.1 mph NE5.0 kmh NE 6.3 mph10.1 kmh 30.06 in1017.9 mb 0.00 in0.0 mm 0.00 in0.0 mm 0.00 in0.0 mm
09:35 PM 53.8°F12.1°C 46.4°F8.0°C 76% 3.2 mph NE5.1 kmh NE 4.7 mph7.6 kmh 30.06 in1017.9 mb 0.00 in0.0 mm 0.00 in0.0 mm 0.00 in0.0 mm
09:40 PM 53.8°F12.1°C 46.4°F8.0°C 76% 3.6 mph NNE5.8 kmh NNE 4.3 mph6.9 kmh 30.06 in1017.9 mb 0.00 in0.0 mm 0.00 in0.0 mm 0.00 in0.0 mm
09:45 PM 53.8°F12.1°C 46.4°F8.0°C 76% 3.5 mph NNE5.6 kmh NNE 5.1 mph8.2 kmh 30.06 in1017.9 mb 0.00 in0.0 mm 0.00 in0.0 mm 0.00 in0.0 mm
09:50 PM 53.9°F12.2°C 46.9°F8.3°C 77% 2.9 mph NNE4.7 kmh NNE 5.1 mph8.2 kmh 30.06 in1017.9 mb 0.00 in0.0 mm 0.00 in0.0 mm 0.00 in0.0 mm
09:55 PM 54.0°F12.2°C 47.1°F8.4°C 78% 3.1 mph NNE5.0 kmh NNE 5.4 mph8.7 kmh 30.06 in1017.9 mb 0.00 in0.0 mm 0.00 in0.0 mm 0.00 in0.0 mm
10:00 PM 54.1°F12.3°C 47.4°F8.6°C 78% 4.0 mph NE6.4 kmh NE 5.8 mph9.3 kmh 30.06 in1017.9 mb 0.00 in0.0 mm 0.00 in0.0 mm 0.00 in0.0 mm
10:05 PM 54.1°F12.3°C 47.4°F8.6°C 78% 4.0 mph NE6.4 kmh NE 5.4 mph8.7 kmh 30.06 in1017.9 mb 0.00 in0.0 mm 0.00 in0.0 mm 0.00 in0.0 mm
10:10 PM 54.1°F12.3°C 47.4°F8.6°C 78% 3.6 mph ENE5.8 kmh ENE 4.0 mph6.4 kmh 30.06 in1017.9 mb 0.00 in0.0 mm 0.00 in0.0 mm 0.00 in0.0 mm
10:15 PM 54.1°F12.3°C 47.4°F8.6°C 78% 3.5 mph NE5.6 kmh NE 4.3 mph6.9 kmh 30.06 in1017.9 mb 0.00 in0.0 mm 0.00 in0.0 mm 0.00 in0.0 mm
10:20 PM 54.1°F12.3°C 47.4°F8.6°C 78% 2.9 mph NE4.7 kmh NE 3.1 mph5.0 kmh 30.06 in1017.9 mb 0.00 in0.0 mm 0.00 in0.0 mm 0.00 in0.0 mm
10:25 PM 54.1°F12.3°C 47.4°F8.6°C 78% 2.8 mph NE4.5 kmh NE 4.0 mph6.4 kmh 30.07 in1018.3 mb 0.00 in0.0 mm 0.00 in0.0 mm 0.00 in0.0 mm
10:30 PM 54.1°F12.3°C 47.5°F8.6°C 78% 2.5 mph NNE4.0 kmh NNE 4.0 mph6.4 kmh 30.07 in1018.3 mb 0.00 in0.0 mm 0.00 in0.0 mm 0.00 in0.0 mm
10:35 PM 54.1°F12.3°C 47.4°F8.6°C 78% 2.5 mph NNE4.0 kmh NNE 4.0 mph6.4 kmh 30.07 in1018.3 mb 0.00 in0.0 mm 0.00 in0.0 mm 0.00 in0.0 mm
10:40 PM 54.1°F12.3°C 47.4°F8.6°C 78% 2.9 mph N4.7 kmh N 4.3 mph6.9 kmh 30.07 in1018.3 mb 0.00 in0.0 mm 0.00 in0.0 mm 0.00 in0.0 mm
10:45 PM 54.1°F12.3°C 47.4°F8.6°C 78% 2.9 mph N4.7 kmh N 5.1 mph8.2 kmh 30.07 in1018.3 mb 0.00 in0.0 mm 0.00 in0.0 mm 0.00 in0.0 mm
10:50 PM 54.0°F12.2°C 46.8°F8.2°C 77% 2.9 mph NNW4.7 kmh NNW 5.4 mph8.7 kmh 30.07 in1018.3 mb 0.00 in0.0 mm 0.00 in0.0 mm 0.00 in0.0 mm
10:55 PM 53.6°F12.0°C 46.3°F7.9°C 76% 3.0 mph NNW4.8 kmh NNW 4.0 mph6.4 kmh 30.07 in1018.3 mb 0.00 in0.0 mm 0.00 in0.0 mm 0.00 in0.0 mm
11:00 PM 53.4°F11.9°C 46.0°F7.8°C 76% 3.6 mph WSW5.8 kmh WSW 7.4 mph11.9 kmh 30.08 in1018.6 mb 0.00 in0.0 mm 0.00 in0.0 mm 0.00 in0.0 mm
11:05 PM 53.2°F11.8°C 46.1°F7.8°C 77% 3.7 mph WSW6.0 kmh WSW 7.4 mph11.9 kmh 30.08 in1018.6 mb 0.00 in0.0 mm 0.00 in0.0 mm 0.00 in0.0 mm
11:10 PM 53.0°F11.7°C 46.0°F7.8°C 77% 4.3 mph W6.9 kmh W 7.6 mph12.2 kmh 30.08 in1018.6 mb 0.00 in0.0 mm 0.00 in0.0 mm 0.00 in0.0 mm
11:15 PM 52.8°F11.6°C 45.6°F7.6°C 76% 4.4 mph W7.1 kmh W 8.1 mph13.0 kmh 30.08 in1018.6 mb 0.00 in0.0 mm 0.00 in0.0 mm 0.00 in0.0 mm
11:20 PM 52.5°F11.4°C 44.7°F7.1°C 75% 5.4 mph W8.7 kmh W 7.4 mph11.9 kmh 30.08 in1018.6 mb 0.00 in0.0 mm 0.00 in0.0 mm 0.00 in0.0 mm
11:25 PM 52.4°F11.3°C 44.0°F6.7°C 73% 5.3 mph W8.5 kmh W 6.9 mph11.1 kmh 30.08 in1018.6 mb 0.00 in0.0 mm 0.00 in0.0 mm 0.00 in0.0 mm
11:30 PM 52.3°F11.3°C 43.4°F6.3°C 72% 5.1 mph W8.2 kmh W 8.7 mph14.0 kmh 30.08 in1018.6 mb 0.00 in0.0 mm 0.00 in0.0 mm 0.00 in0.0 mm
11:35 PM 52.2°F11.2°C 42.6°F5.9°C 70% 5.2 mph W8.4 kmh W 7.6 mph12.2 kmh 30.08 in1018.6 mb 0.00 in0.0 mm 0.00 in0.0 mm 0.00 in0.0 mm
11:40 PM 52.2°F11.2°C 41.6°F5.3°C 67% 5.4 mph W8.7 kmh W 8.7 mph14.0 kmh 30.08 in1018.6 mb 0.00 in0.0 mm 0.00 in0.0 mm 0.00 in0.0 mm
11:45 PM 52.0°F11.1°C 40.7°F4.8°C 65% 5.4 mph W8.7 kmh W 8.7 mph14.0 kmh 30.08 in1018.6 mb 0.00 in0.0 mm 0.00 in0.0 mm 0.00 in0.0 mm
11:50 PM 52.0°F11.1°C 40.0°F4.4°C 63% 5.8 mph W9.3 kmh W 8.7 mph14.0 kmh 30.08 in1018.6 mb 0.00 in0.0 mm 0.00 in0.0 mm 0.00 in0.0 mm
11:55 PM 52.0°F11.1°C 39.8°F4.3°C 63% 5.8 mph W9.3 kmh W 6.9 mph11.1 kmh 30.08 in1018.6 mb 0.00 in0.0 mm 0.00 in0.0 mm 0.00 in0.0 mm